createdAt,value
2019-04-25T00:01:21.545Z,101518.00
2019-04-25T00:03:54.427Z,101518.30
2019-04-25T00:06:27.976Z,101515.84
2019-04-25T00:09:01.835Z,101524.23
2019-04-25T00:11:35.123Z,101515.59
2019-04-25T00:14:08.685Z,101513.38
2019-04-25T00:16:44.229Z,101517.08
2019-04-25T00:19:17.704Z,101513.52
2019-04-25T00:22:07.882Z,101510.47
2019-04-25T00:24:52.943Z,101515.26
2019-04-25T00:27:26.855Z,101514.75
2019-04-25T00:29:59.785Z,101514.84
2019-04-25T00:32:33.451Z,101509.62
2019-04-25T00:35:06.141Z,101509.97
2019-04-25T00:37:38.588Z,101505.59
2019-04-25T00:40:13.488Z,101501.45
2019-04-25T00:42:46.253Z,101512.17
2019-04-25T00:45:18.729Z,101505.90
2019-04-25T00:47:51.917Z,101509.34
2019-04-25T00:50:25.590Z,101511.37
2019-04-25T00:52:58.094Z,101508.33
2019-04-25T00:55:31.428Z,101511.45
2019-04-25T00:58:11.493Z,101512.94
2019-04-25T01:01:05.982Z,101513.20
2019-04-25T01:03:38.958Z,101513.03
2019-04-25T01:06:12.029Z,101511.37
2019-04-25T01:08:45.795Z,101514.52
2019-04-25T01:11:18.483Z,101520.19
2019-04-25T01:13:52.486Z,101514.89
2019-04-25T01:16:26.034Z,101511.54
2019-04-25T01:18:58.699Z,101506.50
2019-04-25T01:21:31.109Z,101506.28
2019-04-25T01:24:04.371Z,101500.44
2019-04-25T01:26:37.473Z,101509.89
2019-04-25T01:29:10.961Z,101512.94
2019-04-25T01:31:44.073Z,101518.78
2019-04-25T01:34:18.054Z,101512.61
2019-04-25T01:36:58.960Z,101509.55
2019-04-25T01:39:48.943Z,101508.75
2019-04-25T01:42:38.767Z,101505.61
2019-04-25T01:45:14.019Z,101499.47
2019-04-25T01:47:46.480Z,101493.79
2019-04-25T01:50:19.119Z,101486.97
2019-04-25T01:52:52.944Z,101488.58
2019-04-25T01:55:26.068Z,101488.83
2019-04-25T01:57:59.386Z,101494.08
2019-04-25T02:00:36.314Z,101496.07
2019-04-25T02:03:09.379Z,101495.81
2019-04-25T02:05:43.771Z,101500.62
2019-04-25T02:08:16.780Z,101502.98
2019-04-25T02:10:56.778Z,101503.41
2019-04-25T02:13:29.075Z,101497.89
2019-04-25T02:16:03.414Z,101487.90
2019-04-25T02:18:36.646Z,101494.08
2019-04-25T02:21:09.904Z,101497.21
2019-04-25T02:23:44.214Z,101492.17
2019-04-25T02:26:18.624Z,101480.48
2019-04-25T02:28:52.599Z,101483.87
2019-04-25T02:31:26.031Z,101489.20
2019-04-25T02:34:00.741Z,101488.62
2019-04-25T02:36:34.710Z,101482.80
2019-04-25T02:39:18.653Z,101484.50
2019-04-25T02:41:51.276Z,101479.25
2019-04-25T02:44:24.765Z,101481.79
2019-04-25T02:47:34.572Z,101479.80
2019-04-25T02:50:24.462Z,101477.01
2019-04-25T02:53:07.445Z,101479.07
2019-04-25T02:55:40.122Z,101488.60
2019-04-25T02:58:14.127Z,101488.09
2019-04-25T03:00:57.213Z,101493.69
2019-04-25T03:03:21.285Z,101490.89
2019-04-25T03:05:54.939Z,101495.67
2019-04-25T03:08:27.798Z,101499.86
2019-04-25T03:11:01.349Z,101502.95
2019-04-25T03:13:34.394Z,101502.70
2019-04-25T03:16:09.141Z,101501.64
2019-04-25T03:18:50.353Z,101504.77
2019-04-25T03:21:27.567Z,101507.86
2019-04-25T03:24:01.417Z,101507.31
2019-04-25T03:26:40.231Z,101506.47
2019-04-25T03:29:09.316Z,101511.75
2019-04-25T03:31:44.720Z,101512.23
2019-04-25T03:34:20.244Z,101515.28
2019-04-25T03:36:50.768Z,101519.17
2019-04-25T03:39:24.170Z,101514.98
2019-04-25T03:41:57.693Z,101513.84
2019-04-25T03:44:30.480Z,101508.47
2019-04-25T03:47:05.883Z,101516.23
2019-04-25T03:49:37.784Z,101513.94
2019-04-25T03:52:10.414Z,101513.78
2019-04-25T03:54:43.423Z,101516.78
2019-04-25T03:57:16.178Z,101515.86
2019-04-25T03:59:49.051Z,101519.67
2019-04-25T04:02:23.366Z,101527.35
2019-04-25T04:04:56.417Z,101532.78
2019-04-25T04:07:29.390Z,101539.09
2019-04-25T04:10:04.536Z,101549.00
2019-04-25T04:12:36.441Z,101556.68
2019-04-25T04:15:10.428Z,101553.22
2019-04-25T04:17:58.355Z,101557.61
2019-04-25T04:20:50.042Z,101557.78
2019-04-25T04:23:28.314Z,101547.83
2019-04-25T04:26:01.089Z,101538.37
2019-04-25T04:28:33.778Z,101540.14
2019-04-25T04:31:06.789Z,101542.13
2019-04-25T04:33:39.282Z,101552.50
2019-04-25T04:36:14.440Z,101553.77
2019-04-25T04:38:46.087Z,101553.93
2019-04-25T04:41:18.767Z,101545.70
2019-04-25T04:43:51.311Z,101550.25
2019-04-25T04:46:24.144Z,101547.22
2019-04-25T04:48:56.652Z,101546.39
2019-04-25T04:51:29.354Z,101552.82
2019-04-25T04:54:03.311Z,101552.83
2019-04-25T04:56:36.335Z,101560.99
2019-04-25T04:59:08.780Z,101557.85
2019-04-25T05:01:59.381Z,101563.92
2019-04-25T05:04:40.583Z,101563.86
2019-04-25T05:07:31.971Z,101565.96
2019-04-25T05:10:04.865Z,101567.44
2019-04-25T05:12:37.479Z,101563.43
2019-04-25T05:15:10.320Z,101564.39
2019-04-25T05:17:44.026Z,101563.59
2019-04-25T05:20:17.854Z,101552.25
2019-04-25T05:22:51.089Z,101546.56
2019-04-25T05:25:24.720Z,101542.77
2019-04-25T05:28:02.533Z,101548.09
2019-04-25T05:30:38.892Z,101533.92
2019-04-25T05:33:11.536Z,101532.96
2019-04-25T05:35:44.199Z,101531.42
2019-04-25T05:38:17.619Z,101528.93
2019-04-25T05:41:06.514Z,101530.56
2019-04-25T05:43:39.331Z,101533.78
2019-04-25T05:46:13.222Z,101532.66
2019-04-25T05:48:45.842Z,101537.68
2019-04-25T05:51:18.415Z,101531.70
2019-04-25T05:53:50.919Z,101526.62
2019-04-25T05:56:26.767Z,101522.09
2019-04-25T05:58:57.986Z,101521.86
2019-04-25T06:01:30.456Z,101525.59
2019-04-25T06:04:05.392Z,101525.23
2019-04-25T06:06:39.098Z,101523.89
2019-04-25T06:09:39.595Z,101519.88
2019-04-25T06:12:23.712Z,101517.86
2019-04-25T06:14:56.511Z,101515.44
2019-04-25T06:17:37.467Z,101507.90
2019-04-25T06:20:13.329Z,101515.33
2019-04-25T06:22:55.071Z,101513.48
2019-04-25T06:25:32.939Z,101516.48
2019-04-25T06:28:07.594Z,101513.91
2019-04-25T06:30:40.543Z,101517.63
2019-04-25T06:33:16.258Z,101522.56
2019-04-25T06:35:52.461Z,101513.89
2019-04-25T06:38:27.157Z,101518.64
2019-04-25T06:40:59.762Z,101517.51
2019-04-25T06:43:34.115Z,101525.87
2019-04-25T06:46:40.565Z,101526.82
2019-04-25T06:49:26.846Z,101534.14
2019-04-25T06:52:01.031Z,101538.24
2019-04-25T06:54:35.112Z,101542.37
2019-04-25T06:57:07.888Z,101536.98
2019-04-25T06:59:41.515Z,101534.14
2019-04-25T07:02:15.132Z,101532.00
2019-04-25T07:04:47.848Z,101528.19
2019-04-25T07:07:20.827Z,101527.34
2019-04-25T07:09:53.718Z,101532.84
2019-04-25T07:12:29.299Z,101534.34
2019-04-25T07:15:01.216Z,101534.92
2019-04-25T07:17:35.013Z,101529.07
2019-04-25T07:20:13.805Z,101538.68
2019-04-25T07:22:47.121Z,101535.66
2019-04-25T07:25:20.998Z,101538.14
2019-04-25T07:28:24.352Z,101535.37
2019-04-25T07:31:14.219Z,101526.28
2019-04-25T07:33:51.218Z,101525.87
2019-04-25T07:36:23.686Z,101528.47
2019-04-25T07:39:05.762Z,101525.34
2019-04-25T07:41:31.476Z,101529.95
2019-04-25T07:44:05.836Z,101530.03
2019-04-25T07:46:39.913Z,101526.98
2019-04-25T07:49:13.457Z,101521.83
2019-04-25T07:51:46.102Z,101522.34
2019-04-25T07:54:18.678Z,101511.78
2019-04-25T07:56:54.815Z,101513.58
2019-04-25T07:59:27.377Z,101508.30
2019-04-25T08:02:01.227Z,101514.17
2019-04-25T08:04:35.732Z,101513.55
2019-04-25T08:07:07.926Z,101514.20
2019-04-25T08:09:40.585Z,101510.98
2019-04-25T08:12:13.378Z,101495.23
2019-04-25T08:14:51.212Z,101496.27
2019-04-25T08:17:40.652Z,101498.95
2019-04-25T08:20:15.241Z,101500.88
2019-04-25T08:22:56.239Z,101485.50
2019-04-25T08:25:23.484Z,101485.13
2019-04-25T08:27:56.337Z,101488.88
2019-04-25T08:30:29.764Z,101478.61
2019-04-25T08:33:03.863Z,101475.60
2019-04-25T08:35:38.120Z,101472.41
2019-04-25T08:38:10.784Z,101466.53
2019-04-25T08:40:44.103Z,101465.38
2019-04-25T08:43:16.757Z,101459.72
2019-04-25T08:45:49.407Z,101457.77
2019-04-25T08:48:24.287Z,101444.98
2019-04-25T08:51:13.767Z,101444.19
2019-04-25T08:53:58.615Z,101445.45
2019-04-25T08:56:35.212Z,101441.17
2019-04-25T08:59:36.805Z,101440.77
2019-04-25T09:02:08.894Z,101437.74
2019-04-25T09:05:05.957Z,101429.86
2019-04-25T09:07:39.098Z,101432.91
2019-04-25T09:10:13.770Z,101425.98
2019-04-25T09:12:46.380Z,101422.52
2019-04-25T09:15:19.419Z,101426.41
2019-04-25T09:17:52.037Z,101420.94
2019-04-25T09:20:24.776Z,101415.84
2019-04-25T09:22:57.731Z,101408.08
2019-04-25T09:25:30.513Z,101414.19
2019-04-25T09:28:04.383Z,101406.26
2019-04-25T09:30:38.510Z,101416.63
2019-04-25T09:33:11.386Z,101415.00
2019-04-25T09:35:45.760Z,101414.20
2019-04-25T09:38:18.553Z,101405.03
2019-04-25T09:40:51.131Z,101401.36
2019-04-25T09:43:23.813Z,101399.91
2019-04-25T09:46:09.928Z,101398.30
2019-04-25T09:49:04.298Z,101386.50
2019-04-25T09:51:40.470Z,101383.84
2019-04-25T09:54:30.067Z,101382.41
2019-04-25T09:57:23.381Z,101385.47
2019-04-25T09:59:56.139Z,101380.80
2019-04-25T10:02:28.840Z,101382.01
2019-04-25T10:05:03.949Z,101374.49
2019-04-25T10:07:37.298Z,101378.35
2019-04-25T10:10:11.002Z,101376.92
2019-04-25T10:12:44.227Z,101381.00
2019-04-25T10:16:07.076Z,101374.27
2019-04-25T10:18:41.231Z,101377.34
2019-04-25T10:21:18.061Z,101365.09
2019-04-25T10:23:51.254Z,101367.73
2019-04-25T10:26:25.904Z,101364.67
2019-04-25T10:28:58.388Z,101358.36
2019-04-25T10:31:30.990Z,101356.34
2019-04-25T10:34:03.833Z,101362.63
2019-04-25T10:36:39.806Z,101359.78
2019-04-25T10:39:12.338Z,101360.59
2019-04-25T10:41:46.782Z,101362.63
2019-04-25T10:44:19.628Z,101355.89
2019-04-25T10:46:52.903Z,101353.88
2019-04-25T10:49:26.386Z,101342.48
2019-04-25T10:51:59.025Z,101349.19
2019-04-25T10:54:31.508Z,101348.56
2019-04-25T10:57:06.416Z,101351.41
2019-04-25T10:59:38.448Z,101355.06
2019-04-25T11:02:12.070Z,101355.06
2019-04-25T11:04:55.898Z,101346.52
2019-04-25T11:07:29.152Z,101348.14
2019-04-25T11:10:03.442Z,101342.58
2019-04-25T11:12:36.558Z,101344.20
2019-04-25T11:15:10.595Z,101345.98
2019-04-25T11:17:45.790Z,101345.75
2019-04-25T11:20:30.607Z,101338.99
2019-04-25T11:23:03.841Z,101338.29
2019-04-25T11:25:36.549Z,101338.01
2019-04-25T11:28:12.081Z,101331.85
2019-04-25T11:30:47.100Z,101334.17
2019-04-25T11:33:23.005Z,101328.61
2019-04-25T11:35:57.089Z,101327.95
2019-04-25T11:38:37.811Z,101327.34
2019-04-25T11:41:14.516Z,101325.30
2019-04-25T11:43:47.067Z,101319.64
2019-04-25T11:46:20.233Z,101317.64
2019-04-25T11:48:54.690Z,101317.42
2019-04-25T11:51:27.180Z,101320.48
2019-04-25T11:54:00.066Z,101309.13
2019-04-25T11:56:37.049Z,101311.77
2019-04-25T11:59:10.039Z,101310.14
2019-04-25T12:01:45.384Z,101310.55
2019-04-25T12:04:18.652Z,101311.94
2019-04-25T12:06:51.584Z,101306.78
2019-04-25T12:09:26.423Z,101308.51
2019-04-25T12:11:59.271Z,101302.35
2019-04-25T12:14:32.003Z,101300.64
2019-04-25T12:17:05.533Z,101294.27
2019-04-25T12:19:38.360Z,101299.86
2019-04-25T12:22:10.877Z,101296.38
2019-04-25T12:24:46.744Z,101301.17
2019-04-25T12:27:19.498Z,101295.59
2019-04-25T12:29:52.572Z,101294.51
2019-04-25T12:32:28.248Z,101298.48
2019-04-25T12:35:01.101Z,101297.00
2019-04-25T12:37:33.758Z,101285.84
2019-04-25T12:40:08.708Z,101284.05
2019-04-25T12:42:41.844Z,101284.84
2019-04-25T12:45:34.314Z,101283.22
2019-04-25T12:48:07.639Z,101281.83
2019-04-25T12:50:40.629Z,101279.20
2019-04-25T12:53:13.925Z,101276.38
2019-04-25T12:55:47.492Z,101273.53
2019-04-25T12:58:20.196Z,101267.89
2019-04-25T13:00:58.189Z,101266.94
2019-04-25T13:03:29.179Z,101261.88
2019-04-25T13:06:03.114Z,101261.39
2019-04-25T13:08:35.814Z,101265.17
2019-04-25T13:11:10.500Z,101258.42
2019-04-25T13:13:43.612Z,101254.07
2019-04-25T13:16:16.789Z,101257.64
2019-04-25T13:18:49.415Z,101249.87
2019-04-25T13:21:23.480Z,101249.22
2019-04-25T13:23:56.711Z,101247.64
2019-04-25T13:26:33.683Z,101248.27
2019-04-25T13:29:28.450Z,101248.11
2019-04-25T13:32:18.082Z,101252.95
2019-04-25T13:34:53.757Z,101247.64
2019-04-25T13:37:26.871Z,101246.31
2019-04-25T13:40:00.463Z,101250.45
2019-04-25T13:42:33.428Z,101243.33
2019-04-25T13:45:06.254Z,101239.84
2019-04-25T13:47:39.129Z,101246.72
2019-04-25T13:50:12.961Z,101241.41
2019-04-25T13:52:46.498Z,101245.98
2019-04-25T13:55:19.377Z,101241.87
2019-04-25T13:57:53.083Z,101250.16
2019-04-25T14:00:26.334Z,101248.48
2019-04-25T14:02:59.077Z,101245.97
2019-04-25T14:05:33.994Z,101245.34
2019-04-25T14:08:07.056Z,101240.00
2019-04-25T14:10:39.833Z,101234.91
2019-04-25T14:13:13.479Z,101236.86
2019-04-25T14:15:53.572Z,101245.09
2019-04-25T14:18:37.605Z,101237.27
2019-04-25T14:21:14.221Z,101240.06
2019-04-25T14:23:47.181Z,101232.94
2019-04-25T14:26:23.032Z,101233.11
2019-04-25T14:28:56.418Z,101236.08
2019-04-25T14:31:41.043Z,101237.67
2019-04-25T14:34:05.027Z,101233.81
2019-04-25T14:36:37.695Z,101239.27
2019-04-25T14:39:11.040Z,101240.06
2019-04-25T14:41:43.622Z,101238.42
2019-04-25T14:44:16.175Z,101237.41
2019-04-25T14:46:50.728Z,101234.75
2019-04-25T14:49:24.658Z,101229.39
2019-04-25T14:51:58.436Z,101228.10
2019-04-25T14:54:46.040Z,101225.00
2019-04-25T14:57:27.972Z,101228.59
2019-04-25T15:00:03.112Z,101219.99
2019-04-25T15:02:35.100Z,101218.30
2019-04-25T15:05:08.121Z,101216.80
2019-04-25T15:07:40.718Z,101211.90
2019-04-25T15:10:13.533Z,101216.89
2019-04-25T15:12:46.000Z,101214.40
2019-04-25T15:15:18.548Z,101208.47
2019-04-25T15:17:51.069Z,101219.50
2019-04-25T15:20:23.772Z,101223.47
2019-04-25T15:22:57.261Z,101226.82
2019-04-25T15:25:29.842Z,101220.66
2019-04-25T15:28:02.365Z,101216.08
2019-04-25T15:30:38.668Z,101223.61
2019-04-25T15:33:12.015Z,101229.11
2019-04-25T15:36:03.844Z,101228.89
2019-04-25T15:38:48.447Z,101227.30
2019-04-25T15:41:35.098Z,101232.52
2019-04-25T15:44:25.138Z,101234.09
2019-04-25T15:46:59.753Z,101242.94
2019-04-25T15:49:32.318Z,101239.64
2019-04-25T15:52:06.300Z,101244.47
2019-04-25T15:54:39.503Z,101239.63
2019-04-25T15:57:12.677Z,101241.70
2019-04-25T15:59:47.866Z,101247.53
2019-04-25T16:02:21.066Z,101251.77
2019-04-25T16:04:53.649Z,101248.52
2019-04-25T16:07:29.257Z,101257.41
2019-04-25T16:10:01.589Z,101250.62
2019-04-25T16:12:34.974Z,101248.01
2019-04-25T16:15:07.681Z,101247.01
2019-04-25T16:17:40.241Z,101248.25
2019-04-25T16:20:13.060Z,101253.23
2019-04-25T16:22:45.872Z,101254.23
2019-04-25T16:25:19.686Z,101262.89
2019-04-25T16:27:52.391Z,101258.56
2019-04-25T16:30:28.430Z,101256.74
2019-04-25T16:33:01.511Z,101265.02
2019-04-25T16:35:34.211Z,101269.39
2019-04-25T16:38:07.775Z,101269.54
2019-04-25T16:40:41.149Z,101281.80
2019-04-25T16:43:16.848Z,101276.34
2019-04-25T16:45:49.610Z,101280.67
2019-04-25T16:48:22.639Z,101282.45
2019-04-25T16:50:55.178Z,101289.52
2019-04-25T16:53:28.014Z,101290.92
2019-04-25T16:56:00.741Z,101292.36
2019-04-25T16:58:33.652Z,101289.44
2019-04-25T17:01:14.333Z,101296.03
2019-04-25T17:03:47.080Z,101295.45
2019-04-25T17:06:19.737Z,101290.78
2019-04-25T17:08:52.331Z,101296.64
2019-04-25T17:11:24.759Z,101299.11
2019-04-25T17:14:14.711Z,101301.06
2019-04-25T17:16:59.672Z,101302.36
2019-04-25T17:19:44.155Z,101300.97
2019-04-25T17:22:16.654Z,101304.61
2019-04-25T17:24:49.192Z,101309.05
2019-04-25T17:27:21.921Z,101300.86
2019-04-25T17:29:54.662Z,101308.22
2019-04-25T17:32:48.567Z,101303.31
2019-04-25T17:35:23.487Z,101307.63
2019-04-25T17:38:08.518Z,101304.70
2019-04-25T17:40:41.878Z,101308.23
2019-04-25T17:43:14.266Z,101313.14
2019-04-25T17:45:46.960Z,101311.25
2019-04-25T17:48:19.439Z,101319.21
2019-04-25T17:50:52.152Z,101319.09
2019-04-25T17:53:24.682Z,101321.42
2019-04-25T17:55:57.306Z,101325.52
2019-04-25T17:58:29.925Z,101330.22
2019-04-25T18:01:02.513Z,101332.31
2019-04-25T18:03:35.019Z,101330.42
2019-04-25T18:06:09.244Z,101328.27
2019-04-25T18:08:41.862Z,101344.08
2019-04-25T18:11:16.764Z,101339.74
2019-04-25T18:13:49.529Z,101336.21
2019-04-25T18:16:30.245Z,101340.30
2019-04-25T18:19:40.482Z,101339.02
2019-04-25T18:22:43.399Z,101334.68
2019-04-25T18:25:35.634Z,101334.64
2019-04-25T18:28:25.489Z,101339.09
2019-04-25T18:30:58.613Z,101340.36
2019-04-25T18:33:31.548Z,101343.61
2019-04-25T18:36:13.782Z,101343.73
2019-04-25T18:39:03.715Z,101344.89
2019-04-25T18:41:54.835Z,101350.27
2019-04-25T18:44:27.944Z,101356.31
2019-04-25T18:47:00.565Z,101350.57
2019-04-25T18:49:33.291Z,101359.34
2019-04-25T18:52:09.519Z,101355.81
2019-04-25T18:54:55.055Z,101358.97
2019-04-25T18:57:35.022Z,101360.25
2019-04-25T19:00:39.134Z,101361.52
2019-04-25T19:03:28.773Z,101363.25
2019-04-25T19:06:07.319Z,101360.06
2019-04-25T19:08:40.830Z,101358.17
2019-04-25T19:11:13.493Z,101356.77
2019-04-25T19:13:45.939Z,101368.00
2019-04-25T19:16:18.527Z,101366.91
2019-04-25T19:18:51.598Z,101364.95
2019-04-25T19:21:24.429Z,101359.09
2019-04-25T19:23:56.996Z,101363.55
2019-04-25T19:26:29.625Z,101362.38
2019-04-25T19:29:02.178Z,101351.16
2019-04-25T19:31:34.871Z,101352.00
2019-04-25T19:34:07.495Z,101347.78
2019-04-25T19:36:41.398Z,101349.19
2019-04-25T19:39:15.893Z,101348.03
2019-04-25T19:42:00.518Z,101343.90
2019-04-25T19:44:33.130Z,101345.06
2019-04-25T19:47:06.061Z,101339.77
2019-04-25T19:49:38.890Z,101337.88
2019-04-25T19:52:11.590Z,101333.78
2019-04-25T19:54:45.212Z,101334.13
2019-04-25T19:57:17.876Z,101330.28
2019-04-25T19:59:50.721Z,101326.98
2019-04-25T20:02:33.439Z,101331.75
2019-04-25T20:05:14.266Z,101327.91
2019-04-25T20:07:53.490Z,101324.61
2019-04-25T20:10:48.899Z,101323.31
2019-04-25T20:13:21.518Z,101325.28
2019-04-25T20:15:54.381Z,101313.93
2019-04-25T20:18:27.527Z,101309.27
2019-04-25T20:20:59.971Z,101302.33
2019-04-25T20:23:32.716Z,101306.30
2019-04-25T20:26:05.597Z,101313.66
2019-04-25T20:28:38.263Z,101315.17
2019-04-25T20:31:10.684Z,101316.33
2019-04-25T20:33:43.478Z,101307.08
2019-04-25T20:36:18.013Z,101308.59
2019-04-25T20:38:51.920Z,101307.78
2019-04-25T20:41:24.957Z,101307.05
2019-04-25T20:43:57.696Z,101309.85
2019-04-25T20:46:30.189Z,101303.44
2019-04-25T20:49:03.097Z,101308.80
2019-04-25T20:51:36.090Z,101307.97
2019-04-25T20:54:08.678Z,101304.67
2019-04-25T20:56:41.114Z,101301.41
2019-04-25T20:59:13.822Z,101298.36
2019-04-25T21:01:47.167Z,101306.78
2019-04-25T21:04:37.898Z,101306.29
2019-04-25T21:07:10.720Z,101307.69
2019-04-25T21:09:43.241Z,101313.41
2019-04-25T21:12:15.840Z,101307.31
2019-04-25T21:15:13.983Z,101305.07
2019-04-25T21:18:02.929Z,101311.27
2019-04-25T21:20:35.552Z,101305.77
2019-04-25T21:23:08.111Z,101305.04
2019-04-25T21:25:40.644Z,101307.59
2019-04-25T21:28:13.325Z,101304.30
2019-04-25T21:30:45.877Z,101306.30
2019-04-25T21:33:18.436Z,101311.07
2019-04-25T21:35:52.428Z,101307.22
2019-04-25T21:38:25.582Z,101305.01
2019-04-25T21:41:16.769Z,101308.37
2019-04-25T21:43:54.132Z,101305.67
2019-04-25T21:46:26.998Z,101306.31
2019-04-25T21:48:59.779Z,101312.61
2019-04-25T21:51:32.407Z,101304.87
2019-04-25T21:54:05.955Z,101302.73
2019-04-25T21:56:38.850Z,101301.69
2019-04-25T21:59:11.653Z,101300.03
2019-04-25T22:01:45.229Z,101304.91
2019-04-25T22:04:18.308Z,101305.50
2019-04-25T22:06:51.135Z,101298.81
2019-04-25T22:09:25.461Z,101296.95
2019-04-25T22:11:59.301Z,101291.41
2019-04-25T22:14:31.962Z,101291.52
2019-04-25T22:17:07.128Z,101284.62
2019-04-25T22:19:39.791Z,101282.38
2019-04-25T22:22:12.928Z,101270.95
2019-04-25T22:24:45.790Z,101277.02
2019-04-25T22:27:24.162Z,101278.77
2019-04-25T22:30:00.022Z,101271.17
2019-04-25T22:32:46.782Z,101269.55
2019-04-25T22:35:29.119Z,101266.27
2019-04-25T22:38:04.266Z,101265.77
2019-04-25T22:40:37.115Z,101265.77
2019-04-25T22:43:12.060Z,101249.88
2019-04-25T22:45:44.918Z,101250.71
2019-04-25T22:48:19.022Z,101244.02
2019-04-25T22:50:54.597Z,101239.81
2019-04-25T22:53:27.482Z,101244.27
2019-04-25T22:56:01.730Z,101240.66
2019-04-25T22:58:34.564Z,101233.41
2019-04-25T23:01:11.234Z,101236.53
2019-04-25T23:03:45.726Z,101229.63
2019-04-25T23:06:18.481Z,101234.98
2019-04-25T23:08:51.019Z,101232.78
2019-04-25T23:11:23.470Z,101229.73
2019-04-25T23:13:56.385Z,101230.33
2019-04-25T23:16:29.130Z,101226.44
2019-04-25T23:19:02.922Z,101220.84
2019-04-25T23:21:35.928Z,101226.44
2019-04-25T23:24:08.430Z,101228.67
2019-04-25T23:26:59.219Z,101227.84
2019-04-25T23:29:31.789Z,101233.20
2019-04-25T23:32:04.197Z,101219.54
2019-04-25T23:34:37.857Z,101215.44
2019-04-25T23:37:10.924Z,101213.55
2019-04-25T23:39:44.110Z,101213.90
2019-04-25T23:42:16.523Z,101214.95
2019-04-25T23:44:49.450Z,101220.66
2019-04-25T23:47:22.076Z,101218.66
2019-04-25T23:49:55.210Z,101217.61
2019-04-25T23:52:28.048Z,101221.22
2019-04-25T23:55:00.771Z,101217.02
2019-04-25T23:57:33.275Z,101213.66
